Time;durP1;ratioP1;P1;durP2;ratioP2;P2;SDS_P1;SDS_P2;PMS_P1;PMS_P2;Temp;Humidity;BMP_temperature;BMP_pressure;BME280_temperature;BME280_humidity;BME280_pressure;Samples;Min_cycle;Max_cycle;Signal;HPM_P1;HPM_P2
2022/09/11 00:00:17;;;;;;;25.10;12.95;;;;;;;13.96;100.00;101961.47;7383105;19;20044;-73
2022/09/11 00:02:47;;;;;;;24.95;14.20;;;;;;;13.94;100.00;101973.75;7383147;19;20017;-73
2022/09/11 00:05:20;;;;;;;24.42;13.15;;;;;;;13.95;100.00;101964.97;7382220;19;20302;-78
2022/09/11 00:07:49;;;;;;;24.70;13.55;;;;;;;13.94;100.00;101973.75;7383139;19;20014;-77
2022/09/11 00:10:19;;;;;;;29.70;14.90;;;;;;;13.92;100.00;101962.28;7382910;19;20011;-77
2022/09/11 00:12:49;;;;;;;25.58;14.68;;;;;;;13.92;100.00;101964.94;7380300;19;20011;-78
2022/09/11 00:15:19;;;;;;;25.77;13.13;;;;;;;13.92;100.00;101970.19;7383684;19;20453;-78
2022/09/11 00:17:48;;;;;;;25.52;13.38;;;;;;;13.92;100.00;101959.66;7381589;19;20518;-77
2022/09/11 00:20:21;;;;;;;23.75;13.63;;;;;;;13.93;100.00;101966.69;7384952;19;20372;-77
2022/09/11 00:22:52;;;;;;;24.48;13.50;;;;;;;13.94;100.00;101963.22;7381912;19;20010;-77
2022/09/11 00:25:21;;;;;;;29.15;15.05;;;;;;;13.96;100.00;101966.75;7380828;19;20010;-78
2022/09/11 00:27:54;;;;;;;23.65;13.50;;;;;;;13.96;100.00;101964.13;7382511;19;20029;-78
2022/09/11 00:30:24;;;;;;;26.98;14.40;;;;;;;13.99;100.00;101971.19;7381724;19;20082;-77
2022/09/11 00:32:56;;;;;;;28.13;14.77;;;;;;;13.99;100.00;101976.47;7381002;19;20420;-77
2022/09/11 00:35:32;;;;;;;25.73;13.43;;;;;;;13.97;100.00;101971.16;7381243;19;20010;-77
2022/09/11 00:38:03;;;;;;;25.63;13.70;;;;;;;13.97;100.00;101973.81;7381418;19;20019;-76
2022/09/11 00:40:34;;;;;;;26.15;14.23;;;;;;;13.93;100.00;101966.69;7383177;19;20117;-77
2022/09/11 00:43:03;;;;;;;21.55;12.38;;;;;;;13.92;100.00;101964.94;7380861;19;20159;-77
2022/09/11 00:45:34;;;;;;;25.52;11.82;;;;;;;13.92;100.00;101962.28;7381444;19;20035;-76
2022/09/11 00:48:05;;;;;;;23.85;13.73;;;;;;;13.91;100.00;101957.88;7384629;19;20011;-76
2022/09/11 00:50:37;;;;;;;30.52;14.85;;;;;;;13.91;100.00;101959.63;7384558;19;20026;-77
2022/09/11 00:53:10;;;;;;;26.55;14.57;;;;;;;13.92;100.00;101959.66;7364789;19;20010;-77
2022/09/11 00:55:46;;;;;;;26.33;14.77;;;;;;;13.89;100.00;101962.25;7382493;19;20013;-77
2022/09/11 00:58:20;;;;;;;23.52;13.10;;;;;;;13.90;100.00;101966.66;7380740;19;20610;-77
2022/09/11 01:00:49;;;;;;;;;;;;;;;13.87;100.00;101956.06;7380048;19;20010;-77
2022/09/11 01:03:19;;;;;;;26.17;13.02;;;;;;;13.85;100.00;101965.69;7378097;19;19922;-77
2022/09/11 01:05:52;;;;;;;26.42;14.07;;;;;;;13.83;100.00;101970.03;7381901;19;20011;-77
2022/09/11 01:08:22;;;;;;;26.42;13.50;;;;;;;13.78;100.00;101955.88;7380064;19;20002;-77
2022/09/11 01:11:04;;;;;;;26.45;15.20;;;;;;;13.79;100.00;101970.84;7382122;19;20462;-78
2022/09/11 01:13:40;;;;;;;26.95;14.23;;;;;;;13.75;100.00;101969.91;7378331;19;20440;-78
2022/09/11 01:16:22;;;;;;;30.35;15.45;;;;;;;13.73;100.00;101970.72;7381760;19;20017;-78
2022/09/11 01:18:59;;;;;;;30.52;16.08;;;;;;;13.72;100.00;101967.22;7379930;19;20080;-78
2022/09/11 01:22:02;;;;;;;28.48;14.73;;;;;;;13.71;100.00;101969.81;7378322;19;20459;-78
2022/09/11 01:24:56;;;;;;;28.08;14.52;;;;;;;13.68;100.00;101981.19;7381094;19;20264;-78
2022/09/11 01:27:45;;;;;;;26.20;12.93;;;;;;;13.65;100.00;101978.50;7379178;19;20074;-77
2022/09/11 01:30:17;;;;;;;28.77;14.13;;;;;;;13.63;100.00;101976.69;7381321;19;20013;-77
2022/09/11 01:33:07;;;;;;;28.47;14.93;;;;;;;13.59;100.00;101969.59;7382311;19;20003;-78
2022/09/11 01:35:46;;;;;;;23.45;12.95;;;;;;;13.59;100.00;101974.84;7378831;19;20018;-77
2022/09/11 01:38:19;;;;;;;26.70;14.30;;;;;;;13.57;100.00;101971.31;7378088;19;20490;-77
2022/09/11 01:40:53;;;;;;;24.65;14.43;;;;;;;13.57;100.00;101972.19;7380173;19;20009;-77
2022/09/11 01:43:29;;;;;;;28.00;14.00;;;;;;;13.53;100.00;101975.63;7378685;19;20050;-77
2022/09/11 01:46:06;;;;;;;27.25;13.40;;;;;;;13.50;100.00;101970.34;7381775;19;20007;-77
2022/09/11 01:48:40;;;;;;;25.65;13.50;;;;;;;13.45;100.00;101968.47;7378896;19;20002;-77
2022/09/11 01:51:16;;;;;;;27.02;15.38;;;;;;;13.44;100.00;101969.31;7381890;19;20022;-79
2022/09/11 01:53:51;;;;;;;26.77;13.82;;;;;;;13.42;100.00;101966.66;7379108;19;20348;-78
2022/09/11 01:56:25;;;;;;;22.92;12.55;;;;;;;13.40;100.00;101963.09;7383133;19;20015;-78
2022/09/11 01:59:04;;;;;;;25.80;13.55;;;;;;;13.36;100.00;101963.91;7385029;19;20147;-78
2022/09/11 02:01:37;;;;;;;22.92;12.75;;;;;;;13.32;100.00;101965.59;7383580;19;20010;-77
2022/09/11 02:04:10;;;;;;;26.80;14.77;;;;;;;13.31;100.00;101966.44;7385774;19;20392;-77
2022/09/11 02:06:47;;;;;;;26.08;13.45;;;;;;;13.28;100.00;101969.03;7386860;19;20002;-77
2022/09/11 02:09:21;;;;;;;28.05;14.10;;;;;;;13.26;100.00;101959.31;7385516;19;20010;-78
2022/09/11 02:11:54;;;;;;;25.92;13.30;;;;;;;13.23;100.00;101975.94;7389112;19;20014;-73
2022/09/11 02:14:37;;;;;;;28.00;14.30;;;;;;;13.21;100.00;101971.50;7388693;19;20018;-74
2022/09/11 02:17:17;;;;;;;27.95;13.10;;;;;;;13.20;100.00;101975.00;7387792;19;20310;-74
2022/09/11 02:19:48;;;;;;;29.85;14.13;;;;;;;13.17;100.00;101978.44;7389547;19;20138;-76
2022/09/11 02:22:18;;;;;;;30.08;15.38;;;;;;;13.16;100.00;101978.38;7388268;19;20032;-77
2022/09/11 02:24:48;;;;;;;28.00;15.20;;;;;;;13.13;100.00;101987.13;7390268;19;20014;-78
2022/09/11 02:27:23;;;;;;;31.60;15.50;;;;;;;13.10;100.00;101994.94;7387987;19;20029;-73
2022/09/11 02:29:57;;;;;;;29.08;14.30;;;;;;;13.10;100.00;101995.84;7386031;19;20012;-73
2022/09/11 02:32:28;;;;;;;25.83;14.32;;;;;;;13.09;100.00;101993.16;7386133;19;20046;-73
2022/09/11 02:35:02;;;;;;;27.90;13.57;;;;;;;13.07;100.00;101990.50;7383335;19;20436;-73
2022/09/11 02:37:44;;;;;;;27.80;13.80;;;;;;;13.06;100.00;101988.72;7386766;19;20021;-72
2022/09/11 02:40:36;;;;;;;26.98;14.70;;;;;;;13.06;100.00;101986.09;7386235;19;20090;-73
2022/09/11 02:43:41;;;;;;;29.23;13.95;;;;;;;13.05;100.00;101988.69;7383498;19;20011;-72
2022/09/11 02:46:43;;;;;;;28.10;13.70;;;;;;;13.01;100.00;101992.13;7384494;19;20006;-75
2022/09/11 02:49:23;;;;;;;28.02;13.68;;;;;;;12.96;100.00;101994.66;7382993;19;20030;-73
2022/09/11 02:52:02;;;;;;;29.45;13.43;;;;;;;12.94;100.00;101992.84;7384812;19;20017;-78
2022/09/11 02:54:43;;;;;;;27.85;14.13;;;;;;;12.93;100.00;102002.47;7381525;19;20326;-78
2022/09/11 02:57:22;;;;;;;33.50;15.02;;;;;;;12.90;100.00;101997.16;7385009;19;20094;-78
2022/09/11 02:59:55;;;;;;;29.77;13.68;;;;;;;12.88;100.00;101998.84;7387013;19;20264;-78
2022/09/11 03:02:28;;;;;;;30.45;14.20;;;;;;;12.85;100.00;101998.78;7385997;19;20030;-78
2022/09/11 03:04:58;;;;;;;31.55;15.35;;;;;;;12.85;100.00;101997.91;7386475;19;20019;-78
2022/09/11 03:07:28;;;;;;;28.75;14.63;;;;;;;12.82;100.00;101992.56;7385702;19;20017;-78
2022/09/11 03:09:58;;;;;;;31.33;15.63;;;;;;;12.83;100.00;101999.59;7384319;19;20024;-78
2022/09/11 03:12:28;;;;;;;30.58;14.82;;;;;;;12.81;100.00;102002.22;7381983;19;20477;-78
2022/09/11 03:14:58;;;;;;;29.20;14.57;;;;;;;12.81;100.00;102001.31;7382181;19;20015;-78
2022/09/11 03:17:31;;;;;;;29.08;15.13;;;;;;;12.77;100.00;101995.97;7383909;19;20018;-77
2022/09/11 03:20:01;;;;;;;27.58;13.88;;;;;;;12.74;100.00;102000.28;7383797;19;20078;-78
2022/09/11 03:22:30;;;;;;;27.15;12.70;;;;;;;12.69;100.00;101994.91;7384030;19;20022;-77
2022/09/11 03:25:00;;;;;;;28.75;12.93;;;;;;;12.68;100.00;102002.78;7383192;19;20070;-78
2022/09/11 03:27:30;;;;;;;27.85;13.48;;;;;;;12.66;100.00;102001.84;7385110;19;20491;-73
2022/09/11 03:29:59;;;;;;;34.25;14.98;;;;;;;12.64;100.00;101996.56;7384934;19;20015;-73
2022/09/11 03:32:35;;;;;;;27.85;14.10;;;;;;;12.62;100.00;101995.63;7383487;19;20006;-73
2022/09/11 03:35:06;;;;;;;29.40;14.23;;;;;;;12.58;100.00;101998.16;7383311;19;20058;-73
2022/09/11 03:37:38;;;;;;;25.90;12.73;;;;;;;12.55;100.00;101990.19;7384485;19;20010;-73
2022/09/11 03:40:09;;;;;;;28.90;14.68;;;;;;;12.54;100.00;101989.31;7384265;19;20011;-73
2022/09/11 03:42:40;;;;;;;26.10;13.45;;;;;;;12.52;100.00;101988.38;7384392;19;20017;-73
2022/09/11 03:45:10;;;;;;;27.98;13.65;;;;;;;12.50;100.00;101984.81;7383379;19;20019;-73
2022/09/11 03:47:43;;;;;;;29.20;12.93;;;;;;;12.46;100.00;101995.28;7384612;19;20122;-73
2022/09/11 03:50:14;;;;;;;29.17;12.43;;;;;;;12.42;100.00;102003.09;7382779;19;20015;-73
2022/09/11 03:52:44;;;;;;;26.90;13.20;;;;;;;12.38;100.00;101998.59;7378535;19;20015;-73
2022/09/11 03:55:13;;;;;;;26.92;13.68;;;;;;;12.39;100.00;102004.75;7381028;19;20002;-73
2022/09/11 03:57:43;;;;;;;24.00;13.35;;;;;;;12.36;100.00;102000.31;7382941;19;20006;-74
2022/09/11 04:00:14;;;;;;;26.55;13.13;;;;;;;12.35;100.00;102003.78;7382973;19;20017;-73
2022/09/11 04:02:46;;;;;;;25.33;12.85;;;;;;;12.35;100.00;102000.28;7382373;19;20022;-73
2022/09/11 04:05:16;;;;;;;28.58;13.27;;;;;;;12.35;100.00;102006.41;7381277;19;20460;-73
2022/09/11 04:07:47;;;;;;;30.10;13.90;;;;;;;12.33;100.00;102001.97;7384639;19;20268;-73
2022/09/11 04:10:17;;;;;;;27.65;13.25;;;;;;;12.32;100.00;102002.81;7380423;19;20019;-73
2022/09/11 04:12:46;;;;;;;23.98;12.93;;;;;;;12.29;100.00;102005.38;7384372;19;20789;-73
2022/09/11 04:15:16;;;;;;;24.33;12.52;;;;;;;12.24;100.00;102001.75;7380620;19;20007;-73
2022/09/11 04:17:48;;;;;;;27.20;12.77;;;;;;;12.23;100.00;101997.34;7381597;19;20029;-73
2022/09/11 04:20:18;;;;;;;26.40;12.70;;;;;;;12.20;100.00;102005.16;7383347;19;20286;-78
2022/09/11 04:22:48;;;;;;;30.63;14.32;;;;;;;12.19;100.00;102003.38;7381600;19;20010;-78
2022/09/11 04:25:18;;;;;;;25.50;12.98;;;;;;;12.17;100.00;102005.06;7381533;19;20422;-78
2022/09/11 04:27:48;;;;;;;28.67;14.43;;;;;;;12.19;100.00;102012.16;7382320;19;20006;-78
2022/09/11 04:30:18;;;;;;;32.60;14.65;;;;;;;12.17;100.00;102018.22;7381624;19;20223;-78
2022/09/11 04:32:50;;;;;;;29.25;13.77;;;;;;;12.14;100.00;102023.41;7383684;19;20506;-78
2022/09/11 04:35:20;;;;;;;26.65;13.45;;;;;;;12.14;100.00;102026.91;7383585;19;20014;-78
2022/09/11 04:37:50;;;;;;;30.02;14.35;;;;;;;12.17;100.00;102028.75;7383502;19;20085;-78
2022/09/11 04:40:20;;;;;;;29.30;14.05;;;;;;;12.15;100.00;102025.19;7381570;19;20070;-78
2022/09/11 04:42:50;;;;;;;27.73;12.95;;;;;;;12.13;100.00;102029.50;7379310;19;20455;-78
2022/09/11 04:45:19;;;;;;;27.92;14.13;;;;;;;12.12;100.00;102028.63;7380538;19;20370;-78
2022/09/11 04:47:52;;;;;;;32.97;16.45;;;;;;;12.11;100.00;102030.38;7382105;19;20299;-78
2022/09/11 04:50:22;;;;;;;25.70;13.25;;;;;;;12.10;100.00;102031.22;7380535;19;20111;-78
2022/09/11 04:52:53;;;;;;;29.23;14.45;;;;;;;12.15;100.00;102031.31;7375096;19;20014;-73
2022/09/11 04:55:23;;;;;;;32.22;14.85;;;;;;;12.17;100.00;102032.25;7381564;19;20537;-74
2022/09/11 04:57:55;;;;;;;28.45;14.25;;;;;;;12.14;100.00;102039.19;7380029;19;20553;-74
2022/09/11 05:00:26;;;;;;;29.73;13.93;;;;;;;12.10;100.00;102036.47;7383720;19;20010;-78
2022/09/11 05:03:02;;;;;;;24.98;13.70;;;;;;;12.06;100.00;102050.38;7383222;19;20051;-78
2022/09/11 05:05:32;;;;;;;30.25;13.75;;;;;;;12.06;100.00;102055.66;7386523;19;20322;-78
2022/09/11 05:08:07;;;;;;;29.38;13.63;;;;;;;12.10;100.00;102047.00;7387118;19;20013;-78
2022/09/11 05:10:38;;;;;;;27.38;12.85;;;;;;;12.09;100.00;102058.34;7386853;19;20017;-78
2022/09/11 05:13:08;;;;;;;30.77;14.82;;;;;;;12.07;100.00;102056.53;7386103;19;20010;-79
2022/09/11 05:15:38;;;;;;;37.60;17.58;;;;;;;12.06;100.00;102063.53;7386028;19;20006;-78
2022/09/11 05:18:11;;;;;;;37.85;16.67;;;;;;;12.04;100.00;102059.97;7386682;19;20022;-78
2022/09/11 05:20:42;;;;;;;30.00;14.85;;;;;;;12.04;100.00;102057.34;7388048;19;20256;-78
2022/09/11 05:23:13;;;;;;;27.77;13.85;;;;;;;12.09;100.00;102065.34;7387591;19;20018;-78
2022/09/11 05:25:44;;;;;;;23.70;12.75;;;;;;;12.06;100.00;102060.91;7385973;19;20014;-78
2022/09/11 05:28:14;;;;;;;30.25;13.85;;;;;;;12.10;100.00;102075.03;7385176;19;20117;-78
2022/09/11 05:30:44;;;;;;;34.80;15.07;;;;;;;12.09;100.00;102076.75;7383154;19;20003;-78
2022/09/11 05:33:17;;;;;;;31.85;14.18;;;;;;;12.10;100.00;102083.81;7382185;19;20007;-79
2022/09/11 05:35:47;;;;;;;28.02;13.57;;;;;;;12.13;100.00;102084.75;7380766;19;20029;-78
2022/09/11 05:38:17;;;;;;;30.55;13.25;;;;;;;12.16;100.00;102079.56;7382683;19;20094;-78
2022/09/11 05:40:48;;;;;;;30.83;14.73;;;;;;;12.19;100.00;102082.28;7382557;19;20018;-78
2022/09/11 05:43:18;;;;;;;29.05;14.40;;;;;;;12.21;100.00;102083.19;7380360;19;20359;-78
2022/09/11 05:45:56;;;;;;;28.55;13.80;;;;;;;12.24;100.00;102080.66;7379912;19;20479;-78
2022/09/11 05:48:34;;;;;;;29.38;13.80;;;;;;;12.31;100.00;102087.84;7384938;19;20137;-78
2022/09/11 05:51:08;;;;;;;28.85;14.32;;;;;;;12.41;100.00;102084.59;7380935;19;20025;-78
2022/09/11 05:53:38;;;;;;;25.52;13.02;;;;;;;12.47;100.00;102076.88;7376604;19;20014;-78
2022/09/11 05:56:08;;;;;;;25.90;12.00;;;;;;;12.56;100.00;102079.69;7380459;19;20021;-78
2022/09/11 05:58:41;;;;;;;24.40;11.27;;;;;;;12.66;100.00;102084.34;7381299;19;20007;-78
2022/09/11 06:01:15;;;;;;;31.98;14.60;;;;;;;12.80;100.00;102084.69;7379708;19;20273;-78
2022/09/11 06:03:48;;;;;;;29.95;13.57;;;;;;;12.90;100.00;102086.66;7382419;19;20021;-78
2022/09/11 06:06:20;;;;;;;26.40;13.93;;;;;;;13.02;100.00;102091.34;7382547;19;20011;-78
2022/09/11 06:08:51;;;;;;;30.98;14.60;;;;;;;13.14;100.00;102091.63;7382236;19;20272;-78
2022/09/11 06:11:23;;;;;;;31.73;14.75;;;;;;;13.26;100.00;102091.03;7380712;19;20468;-78
2022/09/11 06:13:52;;;;;;;32.33;15.05;;;;;;;13.40;100.00;102086.97;7381077;19;20074;-78
2022/09/11 06:16:24;;;;;;;33.25;15.32;;;;;;;13.51;100.00;102088.06;7379984;19;20034;-78
2022/09/11 06:19:00;;;;;;;37.10;15.77;;;;;;;13.66;100.00;102082.19;7380548;19;20017;-78
2022/09/11 06:21:30;;;;;;;36.92;16.25;;;;;;;13.80;100.00;102090.38;7381737;19;20019;-78
2022/09/11 06:24:00;;;;;;;35.75;14.35;;;;;;;13.89;100.00;102088.81;7380020;19;20021;-77
2022/09/11 06:26:31;;;;;;;33.20;15.25;;;;;;;13.99;100.00;102085.50;7381064;19;19999;-77
2022/09/11 06:29:02;;;;;;;40.15;16.17;;;;;;;14.10;100.00;102084.81;7381883;19;20094;-77
2022/09/11 06:31:32;;;;;;;37.17;16.17;;;;;;;14.20;100.00;102086.75;7382107;19;20030;-77
2022/09/11 06:34:04;;;;;;;27.98;14.70;;;;;;;14.31;100.00;102085.22;7380852;19;20003;-77
2022/09/11 06:36:34;;;;;;;35.47;15.25;;;;;;;14.42;100.00;102093.34;7378869;19;20002;-77
2022/09/11 06:39:04;;;;;;;36.45;16.40;;;;;;;14.50;100.00;102082.06;7380000;19;20506;-77
2022/09/11 06:41:34;;;;;;;43.67;18.10;;;;;;;14.62;100.00;102091.91;7379611;19;20018;-77
2022/09/11 06:44:04;;;;;;;42.70;18.20;;;;;;;14.71;100.00;102081.50;7380583;19;20074;-77
2022/09/11 06:46:39;;;;;;;50.15;19.67;;;;;;;14.82;100.00;102092.22;7383974;19;19999;-79
2022/09/11 06:49:12;;;;;;;47.90;19.75;;;;;;;14.99;100.00;102088.09;7384822;19;20007;-76
2022/09/11 06:51:41;;;;;;;51.40;22.38;;;;;;;15.15;100.00;102078.63;7383405;19;20010;-77
2022/09/11 06:54:13;;;;;;;57.75;24.08;;;;;;;15.41;100.00;102081.63;7378939;19;20021;-76
2022/09/11 06:56:44;;;;;;;52.97;22.90;;;;;;;15.68;100.00;102076.69;7383093;19;20022;-77
2022/09/11 06:59:14;;;;;;;55.13;22.27;;;;;;;15.92;100.00;102069.03;7381352;19;20121;-77
2022/09/11 07:01:44;;;;;;;52.00;22.88;;;;;;;16.14;100.00;102082.50;7388945;19;20006;-76
2022/09/11 07:04:17;;;;;;;60.90;25.52;;;;;;;16.36;100.00;102073.91;7383268;19;20333;-75
2022/09/11 07:06:46;;;;;;;60.20;25.65;;;;;;;16.52;100.00;102078.47;7382564;19;20015;-72
2022/09/11 07:09:16;;;;;;;52.53;23.63;;;;;;;16.70;100.00;102084.78;7383237;19;20021;-72
2022/09/11 07:11:46;;;;;;;46.72;22.08;;;;;;;16.95;100.00;102081.44;7383781;19;20021;-72
2022/09/11 07:14:20;;;;;;;50.13;24.02;;;;;;;17.22;100.00;102088.69;7381866;19;20014;-72
2022/09/11 07:16:54;;;;;;;45.13;21.40;;;;;;;17.42;100.00;102088.78;7379825;19;20025;-72
2022/09/11 07:19:27;;;;;;;49.10;22.42;;;;;;;17.68;100.00;102099.56;7384692;19;20049;-72
2022/09/11 07:21:57;;;;;;;46.85;22.30;;;;;;;17.82;100.00;102097.81;7383004;19;20010;-72
2022/09/11 07:24:26;;;;;;;42.78;22.38;;;;;;;18.01;100.00;102106.72;7382515;19;20052;-73
2022/09/11 07:26:56;;;;;;;37.72;19.23;;;;;;;18.21;100.00;102110.28;7382314;19;20046;-73
2022/09/11 07:29:27;;;;;;;36.88;19.20;;;;;;;18.46;100.00;102113.88;7384664;19;20451;-73
2022/09/11 07:31:57;;;;;;;37.20;20.08;;;;;;;18.59;100.00;102116.53;7381549;19;20029;-72
2022/09/11 07:34:30;;;;;;;36.17;19.55;;;;;;;18.81;100.00;102113.91;7382806;19;20024;-72
2022/09/11 07:37:00;;;;;;;37.35;20.20;;;;;;;18.84;100.00;102119.22;7382788;19;20081;-72
2022/09/11 07:39:30;;;;;;;34.08;18.75;;;;;;;18.93;100.00;102124.53;7381134;19;20014;-73
2022/09/11 07:42:00;;;;;;;31.23;17.10;;;;;;;19.06;100.00;102115.66;7384241;19;20011;-72
2022/09/11 07:44:31;;;;;;;29.73;16.85;;;;;;;19.08;100.00;102119.19;7380781;19;20013;-73
2022/09/11 07:47:00;;;;;;;28.33;16.70;;;;;;;18.96;100.00;102124.50;7382286;19;20011;-73
2022/09/11 07:49:33;;;;;;;26.02;14.45;;;;;;;19.35;100.00;102128.00;7380154;19;20086;-72
2022/09/11 07:52:04;;;;;;;24.05;14.25;;;;;;;19.50;100.00;102122.63;7380759;19;20502;-72
2022/09/11 07:54:33;;;;;;;23.77;14.43;;;;;;;19.51;100.00;102129.72;7377927;19;20784;-72
2022/09/11 07:57:03;;;;;;;27.60;16.08;;;;;;;19.75;100.00;102118.16;7380707;19;20014;-72
2022/09/11 07:59:33;;;;;;;23.92;14.73;;;;;;;19.86;100.00;102114.50;7381070;19;20016;-72
2022/09/11 08:02:02;;;;;;;18.83;11.48;;;;;;;19.90;100.00;102118.94;7382719;19;20011;-72
2022/09/11 08:04:35;;;;;;;18.13;10.68;;;;;;;20.04;100.00;102116.19;7378948;19;20006;-72
2022/09/11 08:07:05;;;;;;;21.20;13.00;;;;;;;19.97;100.00;102119.78;7382494;19;20011;-72
2022/09/11 08:09:35;;;;;;;25.98;16.55;;;;;;;20.07;100.00;102117.94;7380599;19;20014;-72
2022/09/11 08:12:05;;;;;;;21.83;13.90;;;;;;;20.21;100.00;102119.66;7380931;19;20011;-72
2022/09/11 08:14:35;;;;;;;20.60;11.57;;;;;;;20.47;100.00;102127.50;7380380;19;20036;-72
2022/09/11 08:17:05;;;;;;;20.65;12.35;;;;;;;20.36;100.00;102116.00;7378930;19;20014;-72
2022/09/11 08:19:37;;;;;;;20.40;13.18;;;;;;;20.33;100.00;102126.66;7380937;19;20011;-72
2022/09/11 08:22:07;;;;;;;24.45;14.18;;;;;;;20.60;100.00;102124.75;7379937;19;20012;-71
2022/09/11 08:24:37;;;;;;;23.77;13.95;;;;;;;20.69;100.00;102133.56;7381723;19;20021;-72
2022/09/11 08:27:07;;;;;;;26.92;14.73;;;;;;;20.67;100.00;102127.34;7378177;19;20003;-72
2022/09/11 08:29:36;;;;;;;24.98;14.32;;;;;;;20.78;100.00;102132.59;7381782;19;20252;-72
2022/09/11 08:32:07;;;;;;;23.83;14.15;;;;;;;20.93;100.00;102127.09;7380020;19;20356;-72
2022/09/11 08:34:39;;;;;;;17.33;9.38;;;;;;;20.93;100.00;102137.75;7379468;19;20081;-72
2022/09/11 08:37:09;;;;;;;15.30;9.48;;;;;;;20.99;100.00;102136.81;7381106;19;20014;-72
2022/09/11 08:39:39;;;;;;;20.98;12.00;;;;;;;20.76;100.00;102140.59;7381257;19;20013;-72
2022/09/11 08:42:14;;;;;;;19.40;10.90;;;;;;;21.04;100.00;102141.22;7380708;19;20043;-71
2022/09/11 08:44:49;;;;;;;19.00;10.75;;;;;;;21.43;100.00;102137.28;7378868;19;20003;-71
2022/09/11 08:47:23;;;;;;;18.23;10.15;;;;;;;21.70;100.00;102141.44;7380438;19;20022;-73
2022/09/11 08:50:02;;;;;;;15.75;9.23;;;;;;;21.82;100.00;102143.06;7379721;19;20017;-72
2022/09/11 08:52:35;;;;;;;16.30;10.02;;;;;;;21.95;100.00;102144.63;7377611;19;20018;-75
2022/09/11 08:55:06;;;;;;;14.57;8.77;;;;;;;21.97;100.00;102141.94;7380788;19;20025;-72
2022/09/11 08:57:42;;;;;;;16.23;9.27;;;;;;;22.12;100.00;102155.13;7378077;19;20021;-72
2022/09/11 09:00:20;;;;;;;14.82;8.52;;;;;;;22.16;100.00;102148.84;7381311;19;20010;-72
2022/09/11 09:03:29;;;;;;;15.57;9.20;;;;;;;22.47;100.00;102150.16;7379992;19;20537;-71
2022/09/11 09:06:23;;;;;;;12.82;7.45;;;;;;;22.41;100.00;102149.38;7379178;19;20025;-71
2022/09/11 09:09:00;;;;;;;12.27;6.20;;;;;;;22.56;100.00;102145.59;7380515;19;20368;-75
2022/09/11 09:11:37;;;;;;;11.30;6.25;;;;;;;22.57;100.00;102147.34;7377056;19;20026;-75
2022/09/11 09:14:46;;;;;;;12.50;5.70;;;;;;;22.68;100.00;102156.09;7379661;19;20090;-74
2022/09/11 09:17:19;;;;;;;10.93;5.95;;;;;;;22.56;100.00;102154.50;7377066;19;20014;-73
2022/09/11 09:19:54;;;;;;;8.05;5.40;;;;;;;22.92;100.00;102153.00;7379506;19;20018;-72
2022/09/11 09:22:41;;;;;;;10.10;5.30;;;;;;;22.85;100.00;102151.38;7377542;19;20003;-71
2022/09/11 09:25:14;;;;;;;8.70;5.60;;;;;;;23.16;100.00;102157.94;7376778;19;20013;-72
2022/09/11 09:27:49;;;;;;;11.60;5.80;;;;;;;23.47;100.00;102157.34;7377340;19;20021;-72
2022/09/11 09:30:26;;;;;;;9.88;6.40;;;;;;;23.24;100.00;102148.88;7376944;19;20018;-72
2022/09/11 09:33:01;;;;;;;10.77;5.57;;;;;;;23.34;100.00;102155.81;7378467;19;20011;-72
2022/09/11 09:35:43;;;;;;;9.82;5.07;;;;;;;23.26;100.00;102155.97;7376656;19;20019;-72
2022/09/11 09:38:18;;;;;;;8.52;5.47;;;;;;;23.61;100.00;102155.31;7378535;19;20015;-72
2022/09/11 09:41:07;;;;;;;10.82;5.38;;;;;;;23.44;100.00;102162.78;7378587;19;20018;-72
2022/09/11 09:43:50;;;;;;;6.82;4.78;;;;;;;23.94;100.00;102158.19;7379634;19;20010;-72
2022/09/11 09:46:30;;;;;;;10.20;5.20;;;;;;;24.10;100.00;102159.63;7378113;19;20022;-72
2022/09/11 09:49:00;;;;;;;8.80;5.45;;;;;;;24.24;100.00;102160.19;7376536;19;20272;-73
2022/09/11 09:51:29;;;;;;;9.98;5.70;;;;;;;24.29;100.00;102161.00;7377299;19;20513;-72
2022/09/11 09:54:03;;;;;;;9.18;5.38;;;;;;;24.07;100.00;102159.69;7373847;19;20007;-71
2022/09/11 09:56:36;;;;;;;10.35;5.38;;;;;;;24.29;100.00;102161.00;7379061;19;20064;-72
2022/09/11 09:59:15;;;;;;;;;;;;;;;24.17;100.00;102161.25;7376073;19;20019;-72
2022/09/11 10:01:48;;;;;;;8.93;4.78;;;;;;;24.02;100.00;102156.22;7376972;19;19978;-71
2022/09/11 10:04:25;;;;;;;13.35;5.47;;;;;;;23.66;100.00;102161.47;7377536;19;20094;-73
2022/09/11 10:07:09;;;;;;;8.45;5.05;;;;;;;23.26;100.00;102155.09;7377522;19;20014;-74
2022/09/11 10:09:48;;;;;;;9.55;5.15;;;;;;;23.97;100.00;102158.13;7378614;19;20014;-76
2022/09/11 10:12:23;;;;;;;6.78;4.70;;;;;;;24.15;100.00;102152.38;7377589;19;20013;-77
2022/09/11 10:14:55;;;;;;;8.63;4.30;;;;;;;23.70;100.00;102149.78;7375730;19;20031;-74
2022/09/11 10:17:34;;;;;;;9.87;5.93;;;;;;;23.10;100.00;102150.00;7377233;19;20011;-75
2022/09/11 10:20:25;;;;;;;9.52;5.22;;;;;;;22.22;100.00;102156.78;7375004;19;20025;-75
2022/09/11 10:22:56;;;;;;;8.88;5.00;;;;;;;22.17;100.00;102156.84;7378047;19;20018;-74
2022/09/11 10:25:29;;;;;;;10.07;6.00;;;;;;;21.91;100.00;102158.06;7377469;19;20014;-74
2022/09/11 10:28:04;;;;;;;;;;;;;;;22.24;100.00;102154.97;7379032;19;20081;-76
2022/09/11 10:30:39;;;;;;;7.93;4.32;;;;;;;22.35;100.00;102153.03;7377846;19;20260;-77
2022/09/11 10:33:20;;;;;;;8.05;4.50;;;;;;;23.00;100.00;102153.75;7381914;19;20179;-78
2022/09/11 10:35:55;;;;;;;8.02;4.60;;;;;;;23.69;100.00;102153.38;7385497;19;20027;-74
2022/09/11 10:38:31;;;;;;;9.50;5.22;;;;;;;23.84;100.00;102143.25;7383638;19;20017;-75
2022/09/11 10:41:11;;;;;;;9.25;4.35;;;;;;;24.26;100.00;102145.00;7385182;19;20038;-74
2022/09/11 10:43:49;;;;;;;7.30;4.55;;;;;;;24.53;100.00;102138.09;7382414;19;20007;-77
2022/09/11 10:46:27;;;;;;;10.50;4.68;;;;;;;24.86;100.00;102141.75;7382790;19;20018;-76
2022/09/11 10:48:59;;;;;;;10.07;5.00;;;;;;;25.10;100.00;102138.44;7385786;19;20451;-75
2022/09/11 10:51:31;;;;;;;7.25;4.50;;;;;;;24.86;96.51;102136.38;7383930;19;20018;-76
2022/09/11 10:54:14;;;;;;;7.18;4.20;;;;;;;25.25;94.98;102134.47;7378831;19;20463;-76
2022/09/11 10:57:03;;;;;;;8.57;4.90;;;;;;;24.99;99.70;102136.94;7383431;19;20328;-75
2022/09/11 10:59:41;;;;;;;9.88;5.78;;;;;;;24.96;96.60;102126.31;7381332;19;20028;-75
2022/09/11 11:02:21;;;;;;;7.65;4.45;;;;;;;24.83;98.29;102127.53;7385196;19;20479;-76
2022/09/11 11:04:51;;;;;;;8.90;5.03;;;;;;;24.80;99.56;102135.66;7383651;19;20022;-72
2022/09/11 11:07:44;;;;;;;7.85;4.45;;;;;;;24.94;98.93;102125.47;7383398;19;20002;-71
2022/09/11 11:10:26;;;;;;;7.38;4.53;;;;;;;25.14;95.44;102124.94;7383387;19;20412;-71
2022/09/11 11:13:13;;;;;;;9.30;4.57;;;;;;;24.77;99.23;102133.94;7383196;19;20011;-73
2022/09/11 11:15:56;;;;;;;10.23;4.80;;;;;;;24.85;96.57;102129.25;7381974;19;20015;-71
2022/09/11 11:18:46;;;;;;;8.25;4.78;;;;;;;24.43;95.73;102128.53;7382711;19;20063;-72
2022/09/11 11:21:29;;;;;;;6.60;4.25;;;;;;;24.34;97.84;102123.38;7384283;19;20102;-71
2022/09/11 11:24:11;;;;;;;7.50;4.50;;;;;;;24.20;97.45;102129.03;7383306;19;20193;-73
2022/09/11 11:26:54;;;;;;;9.05;4.82;;;;;;;24.08;100.00;102122.13;7380884;19;20034;-71
2022/09/11 11:29:38;;;;;;;;;;;;;;;24.38;100.00;102127.75;7382758;19;20349;-72
2022/09/11 11:32:31;;;;;;;8.70;4.22;;;;;;;24.72;97.77;102117.06;7381612;19;19914;-72
2022/09/11 11:35:18;;;;;;;8.93;4.22;;;;;;;25.23;99.15;102119.31;7381603;19;20046;-72
2022/09/11 11:37:51;;;;;;;8.05;4.30;;;;;;;25.51;93.67;102111.38;7384137;19;20021;-72